Airfield :
LOGIN :

Register | Disclaimer

   EN    FR    IT 

 










Legend :    VFR   Marginal VFR   IFR   Intensive IFR   Very Intensive IFR
Visi :
Ceiling :
>= 8 km
>= 3000ft
5 to 8 km
1000 to 3000 ft
1500m to 5 km
500 to 1000 ft
800 to 1500m
200 to 500 ft
< 800m
< 200 ft
Symbols :   Thunderstorms  Fog  Heavy snow  Heavy precipitations  Wind > 20 kt
SIGMETs :     Misc.  Thunderstorms  Icing  Turbulence  Mountain Waves  Volcanic Ashes






- Airport Elevation : 681 ft
- IATA code : LBA


EGNM - Leeds Bradford

CURRENT METAR :
  • 101020Z 19021G34KT 9999 -RA SCT014 SCT017 08/06 Q1003

EXPIRED METARs :
  • 100950Z 18020G34KT 9999 -RA SCT014 SCT017 08/05 Q1004
  • 100920Z 18019G29KT 9999 -RA SCT014 SCT019 08/05 Q1005
  • 100850Z 18018KT 150V220 9999 -RA SCT014 SCT019 07/05 Q1006
  • 100820Z 18014KT 9999 -RA SCT015 07/05 Q1008
  • 100750Z 18012KT 9999 -SHRA SCT016 06/04 Q1008

TAF TAF EGNM
Valid from the 10 at 06:00 until the 11 at 06:00 UTC


100459Z 1006/1106 17010KT 9999 SCT025
BECMG 1006/1009 18018G30KT
TEMPO 1008/1016 19025G40KT 5000 RA BKN011
PROB30
TEMPO 1008/1016 4000 +RA BKN007
BECMG 1016/1018 25022G35KT
TEMPO 1016/1018 6000 RA
PROB40
TEMPO 1016/1020 3000 +RA BKN010
BECMG 1018/1021 25015G25KT
BECMG 1100/1103 26012KT
ATIS : +44 113 250 9696 (x2489)



MET'MAP, your aeronautical weather chart ! - Copyright ORBIFLY December 2007 - Disclaimer

ORBIFLY MET'MAP TEAM :

Programming & Development : Alexandra Zaïnal
Concept & original design : Baudouin d'Aumeries
Assistance for programming : Marc-Olivier Méhu
Technical & hardware support : Manuel Goepfert

Contact : metmap@orbifly.com




SOURCES & CREDITS :

   NOAA